createdAt,value
2024-02-02T00:01:55.387Z,69.26
2024-02-02T00:04:23.475Z,68.98
2024-02-02T00:06:51.568Z,69.59
2024-02-02T00:09:20.851Z,69.87
2024-02-02T00:11:50.355Z,69.86
2024-02-02T00:14:18.599Z,70.62
2024-02-02T00:16:46.843Z,70.53
2024-02-02T00:19:15.022Z,70.38
2024-02-02T00:21:43.100Z,71.20
2024-02-02T00:24:11.778Z,70.94
2024-02-02T00:26:39.842Z,71.00
2024-02-02T00:29:09.317Z,71.27
2024-02-02T00:31:37.336Z,71.26
2024-02-02T00:34:05.578Z,71.88
2024-02-02T00:36:33.703Z,71.44
2024-02-02T00:39:02.091Z,72.20
2024-02-02T00:41:30.169Z,72.46
2024-02-02T00:43:58.356Z,72.68
2024-02-02T00:46:29.711Z,72.11
2024-02-02T00:48:58.097Z,72.91
2024-02-02T00:51:26.717Z,72.70
2024-02-02T00:53:54.806Z,72.65
2024-02-02T00:56:25.313Z,72.07
2024-02-02T00:58:53.556Z,71.59
2024-02-02T01:01:21.637Z,71.58
2024-02-02T01:03:51.159Z,71.80
2024-02-02T01:06:19.279Z,72.33
2024-02-02T01:08:47.531Z,72.02
2024-02-02T01:11:15.689Z,73.71
2024-02-02T01:13:43.708Z,73.99
2024-02-02T01:16:11.752Z,74.01
2024-02-02T01:18:39.929Z,73.68
2024-02-02T01:21:10.184Z,74.33
2024-02-02T01:23:38.265Z,73.87
2024-02-02T01:26:06.539Z,74.25
2024-02-02T01:28:35.177Z,74.60
2024-02-02T01:31:03.367Z,74.90
2024-02-02T01:33:31.593Z,75.05
2024-02-02T01:36:00.163Z,74.94
2024-02-02T01:38:29.551Z,75.08
2024-02-02T01:40:57.625Z,75.41
2024-02-02T01:43:27.342Z,75.86
2024-02-02T01:45:55.664Z,74.87
2024-02-02T01:48:25.573Z,74.77
2024-02-02T01:50:54.824Z,74.42
2024-02-02T01:53:23.045Z,74.53
2024-02-02T01:55:52.474Z,73.53
2024-02-02T01:58:21.028Z,72.85
2024-02-02T02:00:49.511Z,73.08
2024-02-02T02:03:18.418Z,72.62
2024-02-02T02:05:46.607Z,72.88
2024-02-02T02:08:14.918Z,72.21
2024-02-02T02:10:43.044Z,71.15
2024-02-02T02:13:12.515Z,71.49
2024-02-02T02:15:40.655Z,70.70
2024-02-02T02:18:08.893Z,70.78
2024-02-02T02:20:37.258Z,70.18
2024-02-02T02:23:06.829Z,70.08
2024-02-02T02:25:34.951Z,69.45
2024-02-02T02:28:02.985Z,68.12
2024-02-02T02:30:31.185Z,67.13
2024-02-02T02:32:59.898Z,66.44
2024-02-02T02:35:28.040Z,65.29
2024-02-02T02:37:56.071Z,64.78
2024-02-02T02:40:25.574Z,64.62
2024-02-02T02:42:53.644Z,63.64
2024-02-02T02:45:22.368Z,63.13
2024-02-02T02:47:50.913Z,62.24
2024-02-02T02:50:18.999Z,62.38
2024-02-02T02:52:47.100Z,61.43
2024-02-02T02:55:15.453Z,61.30
2024-02-02T02:57:44.890Z,60.74
2024-02-02T03:00:14.182Z,60.91
2024-02-02T03:02:42.272Z,60.46
2024-02-02T03:05:10.650Z,60.06
2024-02-02T03:07:38.672Z,60.42
2024-02-02T03:10:07.126Z,59.70
2024-02-02T03:12:35.223Z,60.01
2024-02-02T03:15:05.499Z,59.69
2024-02-02T03:17:33.681Z,59.42
2024-02-02T03:20:01.825Z,59.34
2024-02-02T03:22:29.859Z,59.42
2024-02-02T03:24:57.879Z,59.12
2024-02-02T03:27:26.184Z,59.58
2024-02-02T03:29:54.697Z,60.51
2024-02-02T03:32:24.209Z,60.94
2024-02-02T03:34:52.479Z,60.47
2024-02-02T03:37:21.261Z,60.08
2024-02-02T03:39:49.295Z,60.16
2024-02-02T03:42:17.405Z,60.08
2024-02-02T03:44:45.487Z,60.07
2024-02-02T03:47:13.609Z,60.22
2024-02-02T03:49:43.046Z,59.39
2024-02-02T03:52:11.152Z,60.17
2024-02-02T03:54:39.274Z,60.33
2024-02-02T03:57:07.349Z,60.10
2024-02-02T03:59:35.457Z,60.47
2024-02-02T04:02:03.550Z,61.13
2024-02-02T04:04:32.885Z,61.01
2024-02-02T04:07:02.565Z,61.53
2024-02-02T04:09:30.725Z,61.89
2024-02-02T04:11:58.870Z,62.15
2024-02-02T04:14:27.195Z,62.48
2024-02-02T04:16:55.246Z,62.44
2024-02-02T04:19:23.556Z,62.48
2024-02-02T04:21:51.711Z,61.65
2024-02-02T04:24:21.162Z,61.90
2024-02-02T04:26:49.181Z,61.49
2024-02-02T04:29:17.253Z,60.92
2024-02-02T04:31:45.280Z,61.19
2024-02-02T04:34:13.488Z,61.13
2024-02-02T04:36:42.276Z,60.84
2024-02-02T04:39:10.840Z,60.93
2024-02-02T04:41:40.279Z,61.54
2024-02-02T04:44:08.353Z,61.60
2024-02-02T04:46:36.448Z,60.99
2024-02-02T04:49:04.846Z,60.55
2024-02-02T04:51:33.093Z,60.31
2024-02-02T04:54:01.192Z,59.93
2024-02-02T04:56:29.235Z,59.64
2024-02-02T04:58:58.633Z,59.45
2024-02-02T05:01:26.683Z,59.30
2024-02-02T05:03:55.346Z,59.34
2024-02-02T05:06:23.697Z,59.73
2024-02-02T05:08:51.848Z,59.42
2024-02-02T05:11:19.932Z,59.39
2024-02-02T05:13:48.022Z,59.27
2024-02-02T05:16:17.528Z,59.32
2024-02-02T05:18:45.767Z,58.87
2024-02-02T05:21:14.019Z,58.39
2024-02-02T05:23:48.662Z,57.75
2024-02-02T05:26:18.288Z,57.67
2024-02-02T05:28:46.408Z,57.77
2024-02-02T05:31:14.475Z,57.97
2024-02-02T05:33:47.362Z,57.69
2024-02-02T05:36:15.993Z,57.43
2024-02-02T05:38:44.181Z,57.31
2024-02-02T05:41:12.289Z,57.30
2024-02-02T05:43:40.305Z,57.37
2024-02-02T05:46:08.387Z,57.45
2024-02-02T05:48:36.685Z,57.72
2024-02-02T05:51:06.857Z,57.79
2024-02-02T05:53:35.035Z,57.96
2024-02-02T05:56:03.112Z,58.13
2024-02-02T05:58:31.145Z,59.00
2024-02-02T06:00:59.316Z,59.07
2024-02-02T06:03:27.434Z,58.54
2024-02-02T06:05:55.716Z,59.29
2024-02-02T06:08:25.139Z,59.14
2024-02-02T06:10:53.181Z,59.00
2024-02-02T06:13:21.287Z,59.27
2024-02-02T06:15:49.389Z,59.52
2024-02-02T06:18:18.085Z,59.69
2024-02-02T06:20:46.308Z,59.99
2024-02-02T06:23:14.412Z,59.33
2024-02-02T06:25:43.871Z,60.32
2024-02-02T06:28:11.989Z,60.68
2024-02-02T06:30:40.165Z,61.20
2024-02-02T06:33:09.009Z,60.37
2024-02-02T06:35:37.130Z,60.97
2024-02-02T06:38:05.521Z,59.88
2024-02-02T06:40:33.671Z,60.39
2024-02-02T06:43:05.388Z,61.68
2024-02-02T06:45:33.622Z,60.80
2024-02-02T06:48:02.143Z,60.92
2024-02-02T06:50:31.599Z,60.08
2024-02-02T06:52:59.727Z,60.67
2024-02-02T06:55:27.770Z,60.60
2024-02-02T06:57:55.968Z,61.58
2024-02-02T07:00:25.555Z,61.32
2024-02-02T07:02:53.796Z,62.22
2024-02-02T07:05:23.234Z,62.78
2024-02-02T07:07:52.035Z,63.30
2024-02-02T07:10:21.129Z,63.24
2024-02-02T07:12:59.852Z,63.65
2024-02-02T07:15:33.051Z,64.03
2024-02-02T07:18:01.860Z,65.16
2024-02-02T07:21:09.883Z,65.40
2024-02-02T07:23:40.574Z,65.52
2024-02-02T07:26:29.489Z,66.25
2024-02-02T07:28:58.187Z,66.74
2024-02-02T07:31:49.298Z,67.26
2024-02-02T07:34:42.412Z,67.44
2024-02-02T07:37:11.849Z,67.90
2024-02-02T07:39:40.030Z,67.96
2024-02-02T07:42:08.106Z,68.26
2024-02-02T07:44:36.163Z,67.99
2024-02-02T07:47:05.792Z,68.38
2024-02-02T07:49:33.895Z,68.57
2024-02-02T07:52:02.092Z,67.60
2024-02-02T07:54:30.485Z,68.27
2024-02-02T07:56:58.694Z,67.17
2024-02-02T07:59:26.789Z,67.30
2024-02-02T08:01:54.915Z,67.88
2024-02-02T08:04:24.393Z,67.86
2024-02-02T08:06:52.643Z,68.45
2024-02-02T08:09:20.883Z,68.47
2024-02-02T08:11:48.906Z,67.93
2024-02-02T08:14:17.081Z,68.26
2024-02-02T08:16:45.148Z,68.54
2024-02-02T08:19:13.285Z,68.31
2024-02-02T08:21:42.856Z,68.75
2024-02-02T08:24:11.219Z,68.70
2024-02-02T08:26:39.235Z,68.98
2024-02-02T08:29:07.258Z,69.57
2024-02-02T08:31:35.725Z,68.61
2024-02-02T08:34:03.936Z,69.34
2024-02-02T08:36:32.288Z,69.51
2024-02-02T08:39:01.747Z,68.31
2024-02-02T08:41:31.181Z,68.64
2024-02-02T08:43:59.488Z,69.32
2024-02-02T08:46:27.536Z,70.18
2024-02-02T08:48:57.010Z,70.73
2024-02-02T08:51:48.545Z,70.50
2024-02-02T08:54:47.047Z,71.80
2024-02-02T08:57:41.650Z,72.38
2024-02-02T09:00:18.232Z,72.33
2024-02-02T09:03:11.391Z,71.72
2024-02-02T09:05:54.525Z,70.87
2024-02-02T09:08:39.614Z,71.27
2024-02-02T09:11:24.620Z,70.98
2024-02-02T09:14:09.321Z,71.14
2024-02-02T09:16:44.569Z,71.64
2024-02-02T09:19:31.580Z,71.88
2024-02-02T09:22:03.225Z,71.74
2024-02-02T09:24:43.078Z,70.99
2024-02-02T09:27:21.744Z,70.73
2024-02-02T09:29:51.109Z,71.13
2024-02-02T09:32:19.223Z,70.60
2024-02-02T09:34:48.212Z,70.42
2024-02-02T09:37:23.199Z,69.86
2024-02-02T09:39:54.765Z,68.77
2024-02-02T09:42:58.651Z,68.39
2024-02-02T09:45:49.588Z,66.95
2024-02-02T09:48:30.832Z,66.38
2024-02-02T09:51:07.828Z,65.67
2024-02-02T09:54:13.544Z,64.89
2024-02-02T09:56:53.045Z,64.22
2024-02-02T09:59:30.473Z,64.38
2024-02-02T10:02:24.667Z,64.95
2024-02-02T10:04:59.113Z,64.30
2024-02-02T10:07:40.306Z,64.13
2024-02-02T10:10:32.307Z,64.74
2024-02-02T10:13:10.461Z,64.02
2024-02-02T10:15:56.487Z,64.15
2024-02-02T10:18:49.744Z,64.10
2024-02-02T10:21:29.951Z,62.99
2024-02-02T10:24:19.425Z,62.57
2024-02-02T10:27:13.774Z,62.38
2024-02-02T10:30:05.844Z,62.30
2024-02-02T10:33:07.441Z,62.10
2024-02-02T10:35:41.138Z,60.91
2024-02-02T10:38:21.093Z,61.94
2024-02-02T10:40:59.060Z,60.62
2024-02-02T10:43:37.204Z,60.93
2024-02-02T10:46:16.975Z,60.54
2024-02-02T10:49:04.781Z,60.45
2024-02-02T10:51:40.384Z,60.59
2024-02-02T10:54:21.832Z,59.68
2024-02-02T10:57:03.669Z,59.61
2024-02-02T10:59:42.712Z,59.32
2024-02-02T11:02:23.650Z,59.18
2024-02-02T11:05:03.280Z,58.48
2024-02-02T11:07:37.708Z,57.76
2024-02-02T11:10:08.621Z,58.18
2024-02-02T11:12:47.357Z,57.95
2024-02-02T11:15:30.962Z,57.28
2024-02-02T11:18:13.749Z,57.08
2024-02-02T11:20:54.935Z,56.51
2024-02-02T11:23:34.596Z,55.76
2024-02-02T11:26:08.439Z,54.28
2024-02-02T11:28:46.041Z,53.82
2024-02-02T11:31:26.326Z,52.67
2024-02-02T11:34:01.483Z,52.34
2024-02-02T11:36:45.637Z,52.15
2024-02-02T11:39:31.200Z,52.38
2024-02-02T11:42:00.605Z,50.63
2024-02-02T11:44:30.558Z,51.08
2024-02-02T11:47:00.924Z,52.30
2024-02-02T11:49:32.693Z,50.99
2024-02-02T11:52:07.030Z,51.08
2024-02-02T11:54:40.633Z,51.05
2024-02-02T11:57:14.914Z,50.04
2024-02-02T11:59:44.773Z,49.84
2024-02-02T12:02:31.110Z,49.53
2024-02-02T12:05:02.531Z,49.24
2024-02-02T12:07:54.108Z,49.89
2024-02-02T12:10:24.300Z,49.84
2024-02-02T12:13:00.844Z,50.64
2024-02-02T12:15:29.051Z,50.80
2024-02-02T12:18:00.530Z,50.29
2024-02-02T12:20:31.148Z,50.06
2024-02-02T12:23:00.985Z,50.60
2024-02-02T12:25:29.251Z,50.11
2024-02-02T12:27:57.907Z,49.78
2024-02-02T12:30:26.045Z,48.72
2024-02-02T12:32:56.011Z,48.77
2024-02-02T12:35:25.235Z,48.94
2024-02-02T12:37:54.189Z,48.77
2024-02-02T12:40:25.161Z,49.73
2024-02-02T12:42:54.591Z,49.15
2024-02-02T12:45:22.694Z,49.30
2024-02-02T12:47:51.234Z,49.41
2024-02-02T12:50:22.302Z,49.73
2024-02-02T12:52:54.955Z,49.59
2024-02-02T12:55:24.444Z,49.62
2024-02-02T12:57:53.048Z,49.06
2024-02-02T13:00:25.331Z,48.51
2024-02-02T13:02:55.907Z,49.00
2024-02-02T13:05:27.596Z,49.21
2024-02-02T13:07:55.808Z,49.59
2024-02-02T13:10:38.912Z,50.13
2024-02-02T13:13:14.184Z,49.87
2024-02-02T13:15:43.474Z,50.40
2024-02-02T13:18:16.223Z,50.65
2024-02-02T13:20:46.462Z,50.44
2024-02-02T13:23:24.874Z,50.90
2024-02-02T13:25:58.529Z,50.90
2024-02-02T13:28:27.873Z,51.26
2024-02-02T13:30:59.901Z,50.74
2024-02-02T13:33:32.492Z,50.82
2024-02-02T13:36:02.731Z,50.75
2024-02-02T13:38:34.503Z,50.91
2024-02-02T13:41:05.727Z,51.04
2024-02-02T13:43:35.426Z,51.13
2024-02-02T13:46:04.930Z,51.17
2024-02-02T13:48:41.310Z,52.75
2024-02-02T13:51:11.258Z,52.92
2024-02-02T13:53:39.701Z,53.37
2024-02-02T13:56:11.525Z,53.66
2024-02-02T13:58:40.328Z,53.86
2024-02-02T14:01:16.126Z,53.73
2024-02-02T14:03:44.378Z,53.55
2024-02-02T14:06:13.247Z,53.74
2024-02-02T14:08:42.504Z,53.96
2024-02-02T14:11:22.892Z,54.46
2024-02-02T14:13:53.068Z,54.70
2024-02-02T14:16:22.083Z,54.91
2024-02-02T14:19:00.488Z,55.49
2024-02-02T14:21:31.168Z,55.63
2024-02-02T14:24:06.882Z,55.47
2024-02-02T14:26:36.312Z,56.08
2024-02-02T14:29:04.806Z,56.33
2024-02-02T14:31:33.132Z,56.63
2024-02-02T14:34:01.322Z,56.94
2024-02-02T14:36:29.557Z,57.12
2024-02-02T14:38:57.791Z,57.14
2024-02-02T14:41:26.292Z,56.55
2024-02-02T14:43:55.910Z,56.29
2024-02-02T14:46:23.945Z,57.02
2024-02-02T14:48:52.936Z,57.15
2024-02-02T14:51:21.165Z,57.27
2024-02-02T14:53:49.795Z,57.56
2024-02-02T14:56:18.081Z,58.02
2024-02-02T14:58:46.961Z,58.24
2024-02-02T15:01:16.605Z,58.40
2024-02-02T15:03:45.272Z,58.36
2024-02-02T15:06:13.699Z,58.88
2024-02-02T15:08:42.132Z,59.43
2024-02-02T15:11:10.630Z,59.88
2024-02-02T15:13:39.029Z,60.11
2024-02-02T15:16:08.611Z,59.81
2024-02-02T15:18:38.534Z,60.38
2024-02-02T15:21:07.277Z,60.46
2024-02-02T15:23:35.309Z,60.32
2024-02-02T15:26:03.391Z,60.72
2024-02-02T15:28:31.566Z,61.57
2024-02-02T15:30:59.675Z,61.47
2024-02-02T15:33:27.845Z,61.58
2024-02-02T15:35:57.386Z,62.36
2024-02-02T15:38:25.433Z,62.14
2024-02-02T15:40:55.312Z,62.51
2024-02-02T15:43:23.366Z,62.32
2024-02-02T15:45:51.522Z,62.17
2024-02-02T15:48:20.203Z,62.20
2024-02-02T15:50:50.002Z,62.85
2024-02-02T15:53:19.610Z,63.10
2024-02-02T15:55:47.669Z,63.35
2024-02-02T15:58:16.110Z,63.85
2024-02-02T16:00:44.353Z,63.66
2024-02-02T16:03:12.568Z,63.54
2024-02-02T16:05:40.636Z,64.38
2024-02-02T16:08:09.204Z,64.90
2024-02-02T16:10:38.742Z,65.28
2024-02-02T16:13:06.903Z,65.55
2024-02-02T16:15:37.884Z,66.37
2024-02-02T16:18:06.354Z,65.91
2024-02-02T16:20:36.422Z,65.97
2024-02-02T16:23:04.485Z,66.45
2024-02-02T16:25:32.511Z,66.74
2024-02-02T16:28:01.957Z,66.78
2024-02-02T16:30:30.083Z,67.27
2024-02-02T16:32:59.395Z,67.23
2024-02-02T16:35:30.136Z,66.93
2024-02-02T16:38:01.112Z,67.29
2024-02-02T16:40:29.254Z,67.73
2024-02-02T16:42:57.340Z,67.82
2024-02-02T16:45:26.863Z,67.67
2024-02-02T16:47:55.627Z,68.23
2024-02-02T16:50:23.742Z,67.50
2024-02-02T16:52:51.874Z,68.43
2024-02-02T16:55:20.282Z,68.60
2024-02-02T16:57:48.378Z,69.21
2024-02-02T17:00:17.144Z,69.84
2024-02-02T17:02:46.605Z,68.75
2024-02-02T17:05:14.684Z,69.16
2024-02-02T17:07:43.084Z,69.07
2024-02-02T17:10:11.708Z,69.60
2024-02-02T17:12:39.828Z,69.68
2024-02-02T17:15:08.554Z,69.71
2024-02-02T17:17:38.817Z,69.41
2024-02-02T17:20:11.391Z,69.69
2024-02-02T17:22:44.308Z,69.37
2024-02-02T17:25:12.811Z,69.12
2024-02-02T17:27:42.465Z,69.42
2024-02-02T17:30:14.238Z,69.89
2024-02-02T17:32:42.464Z,69.40
2024-02-02T17:35:12.057Z,69.26
2024-02-02T17:37:40.748Z,69.60
2024-02-02T17:40:10.247Z,69.73
2024-02-02T17:42:39.822Z,69.56
2024-02-02T17:45:09.655Z,69.95
2024-02-02T17:47:37.822Z,69.95
2024-02-02T17:50:06.938Z,70.12
2024-02-02T17:52:36.675Z,69.83
2024-02-02T17:55:05.028Z,70.78
2024-02-02T17:57:33.138Z,70.26
2024-02-02T18:00:01.405Z,69.47
2024-02-02T18:02:29.760Z,70.14
2024-02-02T18:04:57.850Z,69.90
2024-02-02T18:07:32.529Z,69.24
2024-02-02T18:10:06.863Z,68.79
2024-02-02T18:12:38.756Z,68.86
2024-02-02T18:15:08.710Z,68.90
2024-02-02T18:17:38.249Z,68.29
2024-02-02T18:20:08.554Z,68.51
2024-02-02T18:22:36.844Z,68.63
2024-02-02T18:25:06.969Z,69.06
2024-02-02T18:27:35.104Z,69.20
2024-02-02T18:30:04.544Z,69.81
2024-02-02T18:32:32.662Z,70.02
2024-02-02T18:35:00.779Z,71.05
2024-02-02T18:37:28.895Z,71.83
2024-02-02T18:39:56.939Z,72.63
2024-02-02T18:42:26.382Z,72.49
2024-02-02T18:44:54.544Z,71.83
2024-02-02T18:47:22.609Z,72.14
2024-02-02T18:49:50.741Z,72.97
2024-02-02T18:52:18.875Z,72.93
2024-02-02T18:54:47.127Z,72.63
2024-02-02T18:57:15.277Z,72.12
2024-02-02T18:59:44.832Z,72.55
2024-02-02T19:02:13.190Z,72.34
2024-02-02T19:04:43.283Z,72.80
2024-02-02T19:07:12.107Z,73.55
2024-02-02T19:09:40.290Z,73.41
2024-02-02T19:12:08.839Z,73.05
2024-02-02T19:14:36.939Z,73.00
2024-02-02T19:17:06.573Z,72.83
2024-02-02T19:19:34.797Z,72.88
2024-02-02T19:22:03.053Z,73.20
2024-02-02T19:24:31.196Z,72.84
2024-02-02T19:26:59.227Z,72.94
2024-02-02T19:29:27.269Z,72.71
2024-02-02T19:31:55.317Z,72.33
2024-02-02T19:34:26.160Z,72.48
2024-02-02T19:36:54.425Z,72.90
2024-02-02T19:39:22.546Z,72.22
2024-02-02T19:41:50.568Z,73.09
2024-02-02T19:44:18.636Z,72.90
2024-02-02T19:46:46.742Z,73.45
2024-02-02T19:49:15.047Z,72.63
2024-02-02T19:51:44.769Z,73.33
2024-02-02T19:54:14.126Z,73.40
2024-02-02T19:56:42.178Z,73.90
2024-02-02T19:59:10.209Z,74.02
2024-02-02T20:01:38.771Z,74.04
2024-02-02T20:04:07.627Z,74.09
2024-02-02T20:06:35.803Z,73.71
2024-02-02T20:09:05.333Z,72.93
2024-02-02T20:11:33.686Z,73.05
2024-02-02T20:14:01.733Z,72.69
2024-02-02T20:16:29.828Z,73.22
2024-02-02T20:18:57.911Z,72.98
2024-02-02T20:21:29.006Z,72.73
2024-02-02T20:23:57.500Z,72.94
2024-02-02T20:26:26.988Z,72.70
2024-02-02T20:28:56.198Z,72.75
2024-02-02T20:31:24.544Z,73.41
2024-02-02T20:33:54.616Z,73.20
2024-02-02T20:36:24.186Z,73.12
2024-02-02T20:38:52.819Z,74.00
2024-02-02T20:41:26.175Z,73.92
2024-02-02T20:43:58.580Z,73.33
2024-02-02T20:46:27.080Z,73.78
2024-02-02T20:48:55.328Z,73.26
2024-02-02T20:51:23.620Z,73.51
2024-02-02T20:53:52.223Z,73.78
2024-02-02T20:56:20.344Z,74.04
2024-02-02T20:58:48.394Z,73.74
2024-02-02T21:01:17.977Z,74.07
2024-02-02T21:03:46.149Z,73.93
2024-02-02T21:06:14.478Z,74.32
2024-02-02T21:08:44.295Z,74.16
2024-02-02T21:11:12.721Z,74.03
2024-02-02T21:13:40.789Z,74.36
2024-02-02T21:16:09.032Z,75.34
2024-02-02T21:18:38.545Z,75.17
2024-02-02T21:21:07.345Z,76.45
2024-02-02T21:23:35.613Z,76.91
2024-02-02T21:26:03.665Z,78.47
2024-02-02T21:28:31.764Z,78.10
2024-02-02T21:31:00.308Z,79.17
2024-02-02T21:33:28.922Z,78.94
2024-02-02T21:36:03.481Z,79.14
2024-02-02T21:38:32.112Z,79.64
2024-02-02T21:41:00.124Z,80.14
2024-02-02T21:43:28.202Z,80.51
2024-02-02T21:45:56.370Z,80.46
2024-02-02T21:48:24.757Z,80.90
2024-02-02T21:50:53.522Z,81.35
2024-02-02T21:53:22.929Z,81.43
2024-02-02T21:55:50.992Z,81.26
2024-02-02T21:58:19.064Z,81.44
2024-02-02T22:00:47.878Z,82.24
2024-02-02T22:03:16.138Z,82.03
2024-02-02T22:05:44.164Z,82.93
2024-02-02T22:08:13.192Z,82.59
2024-02-02T22:10:42.732Z,81.94
2024-02-02T22:13:11.419Z,83.04
2024-02-02T22:15:39.993Z,82.53
2024-02-02T22:18:08.413Z,82.22
2024-02-02T22:20:36.638Z,82.46
2024-02-02T22:23:04.828Z,81.54
2024-02-02T22:25:32.910Z,81.70
2024-02-02T22:28:01.372Z,81.03
2024-02-02T22:30:30.674Z,80.29
2024-02-02T22:32:59.253Z,80.27
2024-02-02T22:35:27.519Z,80.01
2024-02-02T22:37:55.696Z,79.52
2024-02-02T22:40:23.795Z,79.76
2024-02-02T22:42:51.863Z,79.72
2024-02-02T22:45:21.333Z,79.62
2024-02-02T22:47:49.478Z,79.01
2024-02-02T22:50:17.785Z,79.28
2024-02-02T22:52:45.933Z,79.40
2024-02-02T22:55:14.106Z,78.40
2024-02-02T22:57:42.205Z,78.86
2024-02-02T23:00:19.354Z,78.73
2024-02-02T23:02:48.910Z,79.08
2024-02-02T23:05:17.089Z,78.58
2024-02-02T23:07:45.277Z,78.55
2024-02-02T23:10:13.350Z,78.18
2024-02-02T23:12:41.573Z,78.32
2024-02-02T23:15:10.344Z,77.38
2024-02-02T23:17:38.439Z,77.60
2024-02-02T23:20:09.776Z,77.53
2024-02-02T23:22:37.941Z,76.85
2024-02-02T23:25:06.501Z,76.85
2024-02-02T23:27:37.581Z,76.98
2024-02-02T23:30:07.601Z,76.76
2024-02-02T23:32:35.779Z,76.58
2024-02-02T23:35:04.542Z,77.25
2024-02-02T23:37:34.700Z,77.23
2024-02-02T23:40:02.865Z,76.77
2024-02-02T23:42:31.172Z,77.09
2024-02-02T23:44:59.240Z,77.56
2024-02-02T23:47:27.354Z,77.53
2024-02-02T23:49:55.534Z,77.23
2024-02-02T23:52:23.725Z,77.40
2024-02-02T23:54:53.215Z,77.00
2024-02-02T23:57:25.150Z,77.08
2024-02-02T23:59:53.275Z,76.61
